sensor_id;sensor_type;location;lat;lon;timestamp;pressure;altitude;pressure_sealevel;temperature;humidity
4346;BME280;2186;49.866;7.986;2023-07-16T00:00:53;99864.16;;;21.43;100.00
4346;BME280;2186;49.866;7.986;2023-07-16T00:03:20;99873.38;;;21.29;100.00
4346;BME280;2186;49.866;7.986;2023-07-16T00:05:49;99892.38;;;21.16;100.00
4346;BME280;2186;49.866;7.986;2023-07-16T00:08:16;99883.22;;;21.52;100.00
4346;BME280;2186;49.866;7.986;2023-07-16T00:10:43;99900.91;;;21.45;100.00
4346;BME280;2186;49.866;7.986;2023-07-16T00:13:09;99898.13;;;21.00;100.00
4346;BME280;2186;49.866;7.986;2023-07-16T00:15:36;99900.25;;;21.19;100.00
4346;BME280;2186;49.866;7.986;2023-07-16T00:18:02;99894.69;;;21.10;100.00
4346;BME280;2186;49.866;7.986;2023-07-16T00:20:31;99894.75;;;21.32;100.00
4346;BME280;2186;49.866;7.986;2023-07-16T00:22:57;99897.41;;;21.21;100.00
4346;BME280;2186;49.866;7.986;2023-07-16T00:25:24;99898.97;;;20.90;100.00
4346;BME280;2186;49.866;7.986;2023-07-16T00:27:50;99906.69;;;21.29;100.00
4346;BME280;2186;49.866;7.986;2023-07-16T00:30:17;99921.94;;;20.95;100.00
4346;BME280;2186;49.866;7.986;2023-07-16T00:32:43;99937.78;;;20.89;100.00
4346;BME280;2186;49.866;7.986;2023-07-16T00:35:10;99938.69;;;21.00;100.00
4346;BME280;2186;49.866;7.986;2023-07-16T00:37:37;99920.41;;;20.80;100.00
4346;BME280;2186;49.866;7.986;2023-07-16T00:40:03;99901.63;;;20.79;100.00
4346;BME280;2186;49.866;7.986;2023-07-16T00:42:30;99886.88;;;20.72;100.00
4346;BME280;2186;49.866;7.986;2023-07-16T00:44:56;99903.22;;;20.70;100.00
4346;BME280;2186;49.866;7.986;2023-07-16T00:47:23;99915.50;;;20.74;100.00
4346;BME280;2186;49.866;7.986;2023-07-16T00:49:50;99924.09;;;20.79;100.00
4346;BME280;2186;49.866;7.986;2023-07-16T00:52:18;99914.31;;;20.54;100.00
4346;BME280;2186;49.866;7.986;2023-07-16T00:54:46;99907.91;;;20.55;100.00
4346;BME280;2186;49.866;7.986;2023-07-16T00:57:12;99896.41;;;20.40;100.00
4346;BME280;2186;49.866;7.986;2023-07-16T00:59:39;99904.84;;;20.49;100.00
4346;BME280;2186;49.866;7.986;2023-07-16T01:02:05;99913.44;;;20.54;100.00
4346;BME280;2186;49.866;7.986;2023-07-16T01:04:32;99917.94;;;20.42;100.00
4346;BME280;2186;49.866;7.986;2023-07-16T01:07:01;99931.50;;;20.40;100.00
4346;BME280;2186;49.866;7.986;2023-07-16T01:09:30;99928.66;;;20.31;100.00
4346;BME280;2186;49.866;7.986;2023-07-16T01:11:57;99936.16;;;20.51;100.00
4346;BME280;2186;49.866;7.986;2023-07-16T01:14:26;99934.13;;;20.42;100.00
4346;BME280;2186;49.866;7.986;2023-07-16T01:16:53;99944.63;;;20.34;100.00
4346;BME280;2186;49.866;7.986;2023-07-16T01:19:25;99945.94;;;20.28;100.00
4346;BME280;2186;49.866;7.986;2023-07-16T01:30:08;99952.69;;;20.10;100.00
4346;BME280;2186;49.866;7.986;2023-07-16T01:32:36;99958.31;;;20.07;100.00
4346;BME280;2186;49.866;7.986;2023-07-16T01:35:05;99952.50;;;20.00;100.00
4346;BME280;2186;49.866;7.986;2023-07-16T01:37:32;99958.75;;;20.01;100.00
4346;BME280;2186;49.866;7.986;2023-07-16T01:39:59;99954.69;;;19.95;100.00
4346;BME280;2186;49.866;7.986;2023-07-16T01:42:26;99954.34;;;20.00;100.00
4346;BME280;2186;49.866;7.986;2023-07-16T01:44:52;99971.53;;;19.86;100.00
4346;BME280;2186;49.866;7.986;2023-07-16T01:49:55;99970.88;;;19.82;100.00
4346;BME280;2186;49.866;7.986;2023-07-16T01:52:22;99964.84;;;19.79;100.00
4346;BME280;2186;49.866;7.986;2023-07-16T01:54:48;99977.59;;;19.77;100.00
4346;BME280;2186;49.866;7.986;2023-07-16T01:57:15;99976.63;;;19.78;100.00
4346;BME280;2186;49.866;7.986;2023-07-16T01:59:41;99975.03;;;19.63;100.00
4346;BME280;2186;49.866;7.986;2023-07-16T02:02:08;99982.88;;;19.66;100.00
4346;BME280;2186;49.866;7.986;2023-07-16T02:04:34;99982.66;;;19.69;100.00
4346;BME280;2186;49.866;7.986;2023-07-16T02:07:01;99974.16;;;19.62;100.00
4346;BME280;2186;49.866;7.986;2023-07-16T02:09:29;99979.88;;;19.58;100.00
4346;BME280;2186;49.866;7.986;2023-07-16T02:11:55;99990.19;;;19.51;100.00
4346;BME280;2186;49.866;7.986;2023-07-16T02:14:22;99984.59;;;19.54;100.00
4346;BME280;2186;49.866;7.986;2023-07-16T02:16:48;99981.47;;;19.47;100.00
4346;BME280;2186;49.866;7.986;2023-07-16T02:19:15;99991.91;;;19.27;100.00
4346;BME280;2186;49.866;7.986;2023-07-16T02:21:41;99984.78;;;19.26;100.00
4346;BME280;2186;49.866;7.986;2023-07-16T02:24:08;99995.03;;;19.20;100.00
4346;BME280;2186;49.866;7.986;2023-07-16T02:26:34;99995.66;;;19.11;100.00
4346;BME280;2186;49.866;7.986;2023-07-16T02:29:01;99996.16;;;19.04;100.00
4346;BME280;2186;49.866;7.986;2023-07-16T02:31:27;99995.31;;;19.03;100.00
4346;BME280;2186;49.866;7.986;2023-07-16T02:33:54;100006.97;;;18.77;100.00
4346;BME280;2186;49.866;7.986;2023-07-16T02:36:20;100008.06;;;18.74;100.00
4346;BME280;2186;49.866;7.986;2023-07-16T02:38:47;100011.59;;;18.75;100.00
4346;BME280;2186;49.866;7.986;2023-07-16T02:41:13;100020.25;;;18.80;100.00
4346;BME280;2186;49.866;7.986;2023-07-16T02:43:40;100021.31;;;18.77;100.00
4346;BME280;2186;49.866;7.986;2023-07-16T02:46:06;100029.16;;;18.68;100.00
4346;BME280;2186;49.866;7.986;2023-07-16T02:48:33;100021.28;;;18.64;100.00
4346;BME280;2186;49.866;7.986;2023-07-16T02:50:59;100024.22;;;18.60;100.00
4346;BME280;2186;49.866;7.986;2023-07-16T02:53:26;100025.03;;;18.48;100.00
4346;BME280;2186;49.866;7.986;2023-07-16T02:55:52;100028.13;;;18.42;100.00
4346;BME280;2186;49.866;7.986;2023-07-16T02:58:19;100033.94;;;18.21;100.00
4346;BME280;2186;49.866;7.986;2023-07-16T03:00:45;100032.41;;;18.17;100.00
4346;BME280;2186;49.866;7.986;2023-07-16T03:03:12;100039.91;;;18.26;100.00
4346;BME280;2186;49.866;7.986;2023-07-16T03:05:38;100045.00;;;18.17;100.00
4346;BME280;2186;49.866;7.986;2023-07-16T03:08:05;100034.91;;;18.06;100.00
4346;BME280;2186;49.866;7.986;2023-07-16T03:10:31;100050.94;;;18.08;100.00
4346;BME280;2186;49.866;7.986;2023-07-16T03:12:58;100042.13;;;18.05;100.00
4346;BME280;2186;49.866;7.986;2023-07-16T03:15:24;100047.50;;;18.05;100.00
4346;BME280;2186;49.866;7.986;2023-07-16T03:17:50;100051.91;;;18.06;100.00
4346;BME280;2186;49.866;7.986;2023-07-16T03:20:17;100053.25;;;18.28;100.00
4346;BME280;2186;49.866;7.986;2023-07-16T03:22:44;100058.97;;;18.36;100.00
4346;BME280;2186;49.866;7.986;2023-07-16T03:25:10;100062.09;;;18.30;100.00
4346;BME280;2186;49.866;7.986;2023-07-16T03:27:37;100073.34;;;18.37;100.00
4346;BME280;2186;49.866;7.986;2023-07-16T03:30:03;100069.94;;;18.33;100.00
4346;BME280;2186;49.866;7.986;2023-07-16T03:32:30;100069.09;;;18.32;100.00
4346;BME280;2186;49.866;7.986;2023-07-16T03:35:17;100075.84;;;18.25;100.00
4346;BME280;2186;49.866;7.986;2023-07-16T03:37:43;100078.81;;;18.21;100.00
4346;BME280;2186;49.866;7.986;2023-07-16T03:40:17;100071.91;;;18.17;100.00
4346;BME280;2186;49.866;7.986;2023-07-16T03:42:44;100077.59;;;18.12;100.00
4346;BME280;2186;49.866;7.986;2023-07-16T03:45:10;100081.03;;;18.14;100.00
4346;BME280;2186;49.866;7.986;2023-07-16T03:47:37;100078.25;;;18.16;100.00
4346;BME280;2186;49.866;7.986;2023-07-16T03:50:05;100077.94;;;18.20;100.00
4346;BME280;2186;49.866;7.986;2023-07-16T03:52:31;100082.66;;;18.17;100.00
4346;BME280;2186;49.866;7.986;2023-07-16T03:54:58;100076.00;;;18.22;100.00
4346;BME280;2186;49.866;7.986;2023-07-16T03:57:24;100072.53;;;18.34;100.00
4346;BME280;2186;49.866;7.986;2023-07-16T03:59:51;100078.03;;;18.33;100.00
4346;BME280;2186;49.866;7.986;2023-07-16T04:02:17;100084.56;;;18.29;100.00
4346;BME280;2186;49.866;7.986;2023-07-16T04:04:44;100088.78;;;18.33;100.00
4346;BME280;2186;49.866;7.986;2023-07-16T04:07:10;100086.00;;;18.20;100.00
4346;BME280;2186;49.866;7.986;2023-07-16T04:09:38;100092.38;;;18.19;100.00
4346;BME280;2186;49.866;7.986;2023-07-16T04:12:06;100091.41;;;18.06;100.00
4346;BME280;2186;49.866;7.986;2023-07-16T04:14:32;100100.53;;;18.18;100.00
4346;BME280;2186;49.866;7.986;2023-07-16T04:16:59;100101.69;;;18.14;100.00
4346;BME280;2186;49.866;7.986;2023-07-16T04:19:26;100109.97;;;18.11;100.00
4346;BME280;2186;49.866;7.986;2023-07-16T04:21:52;100115.25;;;18.26;100.00
4346;BME280;2186;49.866;7.986;2023-07-16T04:24:19;100113.97;;;18.32;100.00
4346;BME280;2186;49.866;7.986;2023-07-16T04:26:45;100122.16;;;18.30;100.00
4346;BME280;2186;49.866;7.986;2023-07-16T04:29:11;100126.88;;;18.41;100.00
4346;BME280;2186;49.866;7.986;2023-07-16T04:31:38;100127.16;;;18.37;100.00
4346;BME280;2186;49.866;7.986;2023-07-16T04:34:04;100132.63;;;18.35;100.00
4346;BME280;2186;49.866;7.986;2023-07-16T04:36:31;100132.34;;;18.40;100.00
4346;BME280;2186;49.866;7.986;2023-07-16T04:38:58;100134.25;;;18.52;100.00
4346;BME280;2186;49.866;7.986;2023-07-16T04:41:24;100133.22;;;18.69;100.00
4346;BME280;2186;49.866;7.986;2023-07-16T04:43:50;100149.13;;;19.40;100.00
4346;BME280;2186;49.866;7.986;2023-07-16T04:46:17;100150.78;;;20.20;98.14
4346;BME280;2186;49.866;7.986;2023-07-16T04:48:44;100159.59;;;20.86;93.89
4346;BME280;2186;49.866;7.986;2023-07-16T04:51:11;100152.31;;;21.23;93.40
4346;BME280;2186;49.866;7.986;2023-07-16T04:53:37;100164.31;;;21.32;91.17
4346;BME280;2186;49.866;7.986;2023-07-16T04:56:04;100160.09;;;21.86;89.48
4346;BME280;2186;49.866;7.986;2023-07-16T04:58:32;100160.94;;;22.22;88.51
4346;BME280;2186;49.866;7.986;2023-07-16T05:00:58;100169.53;;;22.16;87.80
4346;BME280;2186;49.866;7.986;2023-07-16T05:03:24;100169.94;;;22.34;87.62
4346;BME280;2186;49.866;7.986;2023-07-16T05:05:55;100178.41;;;22.18;87.96
4346;BME280;2186;49.866;7.986;2023-07-16T05:08:21;100173.34;;;22.13;88.84
4346;BME280;2186;49.866;7.986;2023-07-16T05:10:47;100181.38;;;21.91;87.90
4346;BME280;2186;49.866;7.986;2023-07-16T05:13:14;100171.66;;;22.46;87.01
4346;BME280;2186;49.866;7.986;2023-07-16T05:15:43;100182.88;;;22.53;86.56
4346;BME280;2186;49.866;7.986;2023-07-16T05:18:10;100172.06;;;22.86;85.54
4346;BME280;2186;49.866;7.986;2023-07-16T05:20:36;100184.75;;;22.97;83.95
4346;BME280;2186;49.866;7.986;2023-07-16T05:23:03;100188.66;;;22.82;84.36
4346;BME280;2186;49.866;7.986;2023-07-16T05:25:30;100196.69;;;22.94;84.04
4346;BME280;2186;49.866;7.986;2023-07-16T05:27:58;100195.09;;;22.92;84.79
4346;BME280;2186;49.866;7.986;2023-07-16T05:30:24;100191.00;;;22.75;84.75
4346;BME280;2186;49.866;7.986;2023-07-16T05:32:51;100195.84;;;22.94;84.52
4346;BME280;2186;49.866;7.986;2023-07-16T05:35:17;100202.19;;;23.15;82.56
4346;BME280;2186;49.866;7.986;2023-07-16T05:37:44;100211.56;;;23.22;81.81
4346;BME280;2186;49.866;7.986;2023-07-16T05:40:11;100213.44;;;22.88;82.53
4346;BME280;2186;49.866;7.986;2023-07-16T05:42:39;100212.84;;;22.96;81.92
4346;BME280;2186;49.866;7.986;2023-07-16T05:45:05;100219.47;;;23.14;82.46
4346;BME280;2186;49.866;7.986;2023-07-16T05:47:32;100217.16;;;23.53;81.84
4346;BME280;2186;49.866;7.986;2023-07-16T05:49:59;100217.69;;;23.58;80.16
4346;BME280;2186;49.866;7.986;2023-07-16T05:52:25;100222.44;;;23.66;81.00
4346;BME280;2186;49.866;7.986;2023-07-16T05:54:52;100226.56;;;23.38;79.37
4346;BME280;2186;49.866;7.986;2023-07-16T05:57:18;100229.56;;;23.78;78.93
4346;BME280;2186;49.866;7.986;2023-07-16T05:59:45;100227.13;;;23.75;78.77
4346;BME280;2186;49.866;7.986;2023-07-16T06:02:11;100221.88;;;23.40;78.23
4346;BME280;2186;49.866;7.986;2023-07-16T06:04:38;100223.63;;;23.29;78.55
4346;BME280;2186;49.866;7.986;2023-07-16T06:07:04;100224.84;;;23.59;79.10
4346;BME280;2186;49.866;7.986;2023-07-16T06:09:31;100220.56;;;23.77;78.85
4346;BME280;2186;49.866;7.986;2023-07-16T06:11:57;100224.22;;;23.44;78.59
4346;BME280;2186;49.866;7.986;2023-07-16T06:14:24;100230.56;;;23.22;78.59
4346;BME280;2186;49.866;7.986;2023-07-16T06:16:50;100229.69;;;23.76;77.90
4346;BME280;2186;49.866;7.986;2023-07-16T06:19:18;100233.88;;;23.80;78.70
4346;BME280;2186;49.866;7.986;2023-07-16T06:21:45;100226.63;;;23.70;77.25
4346;BME280;2186;49.866;7.986;2023-07-16T06:24:11;100239.09;;;23.72;78.64
4346;BME280;2186;49.866;7.986;2023-07-16T06:26:42;100235.63;;;24.02;77.27
4346;BME280;2186;49.866;7.986;2023-07-16T06:29:08;100234.03;;;23.68;78.25
4346;BME280;2186;49.866;7.986;2023-07-16T06:31:35;100239.59;;;23.55;78.35
4346;BME280;2186;49.866;7.986;2023-07-16T06:34:01;100241.06;;;23.70;75.23
4346;BME280;2186;49.866;7.986;2023-07-16T06:36:28;100230.25;;;23.91;77.00
4346;BME280;2186;49.866;7.986;2023-07-16T06:38:54;100237.59;;;23.57;76.11
4346;BME280;2186;49.866;7.986;2023-07-16T06:41:21;100241.16;;;23.25;78.13
4346;BME280;2186;49.866;7.986;2023-07-16T06:43:47;100247.56;;;23.24;77.71
4346;BME280;2186;49.866;7.986;2023-07-16T06:46:14;100243.13;;;23.78;76.65
4346;BME280;2186;49.866;7.986;2023-07-16T06:48:41;100246.25;;;23.73;75.52
4346;BME280;2186;49.866;7.986;2023-07-16T06:51:07;100249.00;;;23.62;75.27
4346;BME280;2186;49.866;7.986;2023-07-16T06:53:34;100242.38;;;23.87;74.77
4346;BME280;2186;49.866;7.986;2023-07-16T06:56:00;100239.16;;;23.27;74.78
4346;BME280;2186;49.866;7.986;2023-07-16T06:58:31;100245.72;;;23.79;74.18
4346;BME280;2186;49.866;7.986;2023-07-16T07:00:59;100243.59;;;23.83;74.48
4346;BME280;2186;49.866;7.986;2023-07-16T07:03:26;100255.69;;;24.11;73.84
4346;BME280;2186;49.866;7.986;2023-07-16T07:05:52;100249.88;;;23.83;75.26
4346;BME280;2186;49.866;7.986;2023-07-16T07:08:19;100244.28;;;23.53;73.66
4346;BME280;2186;49.866;7.986;2023-07-16T07:10:48;100248.03;;;24.16;74.26
4346;BME280;2186;49.866;7.986;2023-07-16T07:13:14;100251.56;;;23.96;71.74
4346;BME280;2186;49.866;7.986;2023-07-16T07:15:41;100245.09;;;23.87;68.88
4346;BME280;2186;49.866;7.986;2023-07-16T07:18:08;100252.84;;;23.37;70.20
4346;BME280;2186;49.866;7.986;2023-07-16T07:20:34;100256.13;;;23.52;72.71
4346;BME280;2186;49.866;7.986;2023-07-16T07:23:01;100250.88;;;23.39;73.16
4346;BME280;2186;49.866;7.986;2023-07-16T07:25:29;100255.81;;;23.34;71.93
4346;BME280;2186;49.866;7.986;2023-07-16T07:27:55;100249.97;;;23.72;71.13
4346;BME280;2186;49.866;7.986;2023-07-16T07:30:22;100255.72;;;23.79;68.73
4346;BME280;2186;49.866;7.986;2023-07-16T07:32:48;100251.25;;;23.89;71.14
4346;BME280;2186;49.866;7.986;2023-07-16T07:35:15;100248.44;;;23.79;66.56
4346;BME280;2186;49.866;7.986;2023-07-16T07:37:41;100246.75;;;23.67;67.11
4346;BME280;2186;49.866;7.986;2023-07-16T07:40:08;100257.03;;;23.84;65.51
4346;BME280;2186;49.866;7.986;2023-07-16T07:42:35;100257.81;;;23.86;68.30
4346;BME280;2186;49.866;7.986;2023-07-16T07:45:01;100258.47;;;24.00;66.60
4346;BME280;2186;49.866;7.986;2023-07-16T07:47:28;100252.75;;;23.82;65.84
4346;BME280;2186;49.866;7.986;2023-07-16T07:49:54;100250.19;;;24.33;66.31
4346;BME280;2186;49.866;7.986;2023-07-16T07:52:20;100255.78;;;24.20;64.83
4346;BME280;2186;49.866;7.986;2023-07-16T07:54:47;100261.63;;;24.37;65.62
4346;BME280;2186;49.866;7.986;2023-07-16T07:57:15;100261.88;;;24.13;65.88
4346;BME280;2186;49.866;7.986;2023-07-16T07:59:43;100254.09;;;24.08;64.84
4346;BME280;2186;49.866;7.986;2023-07-16T08:02:10;100257.03;;;24.16;64.51
4346;BME280;2186;49.866;7.986;2023-07-16T08:04:36;100248.53;;;24.10;64.93
4346;BME280;2186;49.866;7.986;2023-07-16T08:07:03;100255.88;;;24.30;63.47
4346;BME280;2186;49.866;7.986;2023-07-16T08:09:30;100268.63;;;24.18;62.83
4346;BME280;2186;49.866;7.986;2023-07-16T08:11:56;100253.09;;;24.41;60.28
4346;BME280;2186;49.866;7.986;2023-07-16T08:14:23;100261.03;;;24.33;61.38
4346;BME280;2186;49.866;7.986;2023-07-16T08:16:49;100258.34;;;24.54;62.69
4346;BME280;2186;49.866;7.986;2023-07-16T08:19:16;100261.13;;;24.43;62.89
4346;BME280;2186;49.866;7.986;2023-07-16T08:21:43;100263.66;;;24.86;60.01
4346;BME280;2186;49.866;7.986;2023-07-16T08:24:09;100269.25;;;24.64;59.46
4346;BME280;2186;49.866;7.986;2023-07-16T08:26:36;100271.31;;;24.50;58.09
4346;BME280;2186;49.866;7.986;2023-07-16T08:29:02;100268.28;;;24.95;58.94
4346;BME280;2186;49.866;7.986;2023-07-16T08:31:30;100276.66;;;24.83;58.69
4346;BME280;2186;49.866;7.986;2023-07-16T08:33:56;100268.81;;;25.20;56.66
4346;BME280;2186;49.866;7.986;2023-07-16T08:36:25;100282.97;;;24.83;57.71
4346;BME280;2186;49.866;7.986;2023-07-16T08:38:52;100277.47;;;24.73;58.33
4346;BME280;2186;49.866;7.986;2023-07-16T08:41:18;100272.78;;;24.55;57.93
4346;BME280;2186;49.866;7.986;2023-07-16T08:43:48;100279.28;;;24.94;57.09
4346;BME280;2186;49.866;7.986;2023-07-16T08:46:15;100282.06;;;25.03;56.88
4346;BME280;2186;49.866;7.986;2023-07-16T08:48:44;100276.97;;;25.10;53.86
4346;BME280;2186;49.866;7.986;2023-07-16T08:51:14;100279.63;;;25.00;53.88
4346;BME280;2186;49.866;7.986;2023-07-16T08:53:41;100280.91;;;24.75;54.15
4346;BME280;2186;49.866;7.986;2023-07-16T08:56:08;100285.28;;;24.67;54.95
4346;BME280;2186;49.866;7.986;2023-07-16T08:58:36;100283.47;;;24.98;54.47
4346;BME280;2186;49.866;7.986;2023-07-16T09:01:05;100280.13;;;25.65;52.76
4346;BME280;2186;49.866;7.986;2023-07-16T09:03:32;100280.63;;;25.39;53.04
4346;BME280;2186;49.866;7.986;2023-07-16T09:06:02;100291.47;;;24.99;52.10
4346;BME280;2186;49.866;7.986;2023-07-16T09:08:28;100283.66;;;25.46;52.70
4346;BME280;2186;49.866;7.986;2023-07-16T09:10:56;100281.22;;;25.43;51.80
4346;BME280;2186;49.866;7.986;2023-07-16T09:13:23;100284.13;;;25.51;49.72
4346;BME280;2186;49.866;7.986;2023-07-16T09:15:55;100280.38;;;25.62;50.96
4346;BME280;2186;49.866;7.986;2023-07-16T09:18:23;100276.69;;;25.13;50.95
4346;BME280;2186;49.866;7.986;2023-07-16T09:20:57;100289.91;;;25.27;52.60
4346;BME280;2186;49.866;7.986;2023-07-16T09:23:25;100275.34;;;25.48;52.62
4346;BME280;2186;49.866;7.986;2023-07-16T09:25:54;100290.91;;;25.26;52.03
4346;BME280;2186;49.866;7.986;2023-07-16T09:28:21;100289.94;;;25.37;50.23
4346;BME280;2186;49.866;7.986;2023-07-16T09:30:48;100288.00;;;25.18;49.68
4346;BME280;2186;49.866;7.986;2023-07-16T09:33:19;100296.16;;;24.88;52.22
4346;BME280;2186;49.866;7.986;2023-07-16T09:35:52;100290.56;;;24.89;50.69
4346;BME280;2186;49.866;7.986;2023-07-16T09:38:19;100286.56;;;24.93;51.15
4346;BME280;2186;49.866;7.986;2023-07-16T09:40:46;100283.69;;;25.16;51.27
4346;BME280;2186;49.866;7.986;2023-07-16T09:43:13;100287.91;;;25.69;52.51
4346;BME280;2186;49.866;7.986;2023-07-16T09:45:41;100290.41;;;24.81;50.78
4346;BME280;2186;49.866;7.986;2023-07-16T09:48:08;100294.16;;;25.10;50.41
4346;BME280;2186;49.866;7.986;2023-07-16T09:50:36;100285.31;;;24.97;51.33
4346;BME280;2186;49.866;7.986;2023-07-16T09:53:04;100291.06;;;25.34;50.83
4346;BME280;2186;49.866;7.986;2023-07-16T09:55:32;100292.91;;;25.34;51.23
4346;BME280;2186;49.866;7.986;2023-07-16T09:58:01;100285.97;;;25.10;50.91
4346;BME280;2186;49.866;7.986;2023-07-16T10:00:30;100280.34;;;25.02;52.03
4346;BME280;2186;49.866;7.986;2023-07-16T10:02:59;100285.38;;;25.07;51.93
4346;BME280;2186;49.866;7.986;2023-07-16T10:05:27;100282.75;;;25.26;50.78
4346;BME280;2186;49.866;7.986;2023-07-16T10:10:42;100284.16;;;25.71;49.47
4346;BME280;2186;49.866;7.986;2023-07-16T10:13:12;100277.72;;;25.72;48.13
4346;BME280;2186;49.866;7.986;2023-07-16T10:15:49;100277.56;;;25.63;47.60
4346;BME280;2186;49.866;7.986;2023-07-16T10:18:27;100277.28;;;25.76;47.26
4346;BME280;2186;49.866;7.986;2023-07-16T10:21:22;100284.34;;;25.98;47.41
4346;BME280;2186;49.866;7.986;2023-07-16T10:23:57;100276.44;;;26.24;45.17
4346;BME280;2186;49.866;7.986;2023-07-16T10:26:27;100263.41;;;25.79;46.78
4346;BME280;2186;49.866;7.986;2023-07-16T10:28:55;100275.16;;;25.89;47.87
4346;BME280;2186;49.866;7.986;2023-07-16T10:31:23;100278.03;;;26.07;46.63
4346;BME280;2186;49.866;7.986;2023-07-16T10:34:03;100281.44;;;25.71;46.13
4346;BME280;2186;49.866;7.986;2023-07-16T10:36:40;100272.53;;;25.19;45.89
4346;BME280;2186;49.866;7.986;2023-07-16T10:39:07;100285.91;;;25.72;45.96
4346;BME280;2186;49.866;7.986;2023-07-16T10:41:34;100282.00;;;25.64;46.25
4346;BME280;2186;49.866;7.986;2023-07-16T10:44:01;100281.63;;;25.98;45.57
4346;BME280;2186;49.866;7.986;2023-07-16T10:46:28;100276.03;;;25.99;45.10
4346;BME280;2186;49.866;7.986;2023-07-16T10:48:54;100274.44;;;25.97;44.31
4346;BME280;2186;49.866;7.986;2023-07-16T10:51:27;100274.41;;;25.68;46.18
4346;BME280;2186;49.866;7.986;2023-07-16T10:53:56;100279.97;;;25.57;46.26
4346;BME280;2186;49.866;7.986;2023-07-16T10:56:24;100271.81;;;25.66;47.16
4346;BME280;2186;49.866;7.986;2023-07-16T10:58:50;100276.03;;;25.80;45.71
4346;BME280;2186;49.866;7.986;2023-07-16T11:01:17;100272.59;;;25.97;46.18
4346;BME280;2186;49.866;7.986;2023-07-16T11:03:44;100276.25;;;25.67;46.79
4346;BME280;2186;49.866;7.986;2023-07-16T11:06:11;100275.72;;;25.74;45.72
4346;BME280;2186;49.866;7.986;2023-07-16T11:08:38;100274.44;;;25.97;46.38
4346;BME280;2186;49.866;7.986;2023-07-16T11:11:04;100277.28;;;25.76;45.99
4346;BME280;2186;49.866;7.986;2023-07-16T11:13:31;100270.22;;;25.54;45.14
4346;BME280;2186;49.866;7.986;2023-07-16T11:16:08;100280.03;;;25.26;45.96
4346;BME280;2186;49.866;7.986;2023-07-16T11:18:35;100269.56;;;25.81;44.62
4346;BME280;2186;49.866;7.986;2023-07-16T11:21:03;100276.00;;;25.90;44.78
4346;BME280;2186;49.866;7.986;2023-07-16T11:23:33;100271.44;;;26.19;45.22
4346;BME280;2186;49.866;7.986;2023-07-16T11:26:02;100271.00;;;26.14;45.13
4346;BME280;2186;49.866;7.986;2023-07-16T11:28:36;100284.63;;;26.24;45.01
4346;BME280;2186;49.866;7.986;2023-07-16T11:31:38;100271.16;;;26.13;44.20
4346;BME280;2186;49.866;7.986;2023-07-16T11:34:04;100277.88;;;26.28;43.13
4346;BME280;2186;49.866;7.986;2023-07-16T11:36:33;100265.28;;;25.98;44.14
4346;BME280;2186;49.866;7.986;2023-07-16T11:39:02;100267.97;;;26.17;44.13
4346;BME280;2186;49.866;7.986;2023-07-16T11:41:30;100271.75;;;26.07;44.10
4346;BME280;2186;49.866;7.986;2023-07-16T11:44:00;100274.88;;;26.21;42.45
4346;BME280;2186;49.866;7.986;2023-07-16T11:46:32;100267.56;;;26.12;43.12
4346;BME280;2186;49.866;7.986;2023-07-16T11:49:02;100273.44;;;25.98;43.10
4346;BME280;2186;49.866;7.986;2023-07-16T11:51:28;100268.28;;;25.85;44.05
4346;BME280;2186;49.866;7.986;2023-07-16T11:53:56;100263.69;;;26.24;43.45
4346;BME280;2186;49.866;7.986;2023-07-16T11:56:23;100257.09;;;25.79;44.02
4346;BME280;2186;49.866;7.986;2023-07-16T11:58:50;100257.97;;;25.98;43.54
4346;BME280;2186;49.866;7.986;2023-07-16T12:01:16;100265.00;;;26.20;42.52
4346;BME280;2186;49.866;7.986;2023-07-16T12:03:43;100259.09;;;26.35;43.97
4346;BME280;2186;49.866;7.986;2023-07-16T12:06:09;100267.16;;;26.83;42.49
4346;BME280;2186;49.866;7.986;2023-07-16T12:08:36;100267.31;;;26.81;41.62
4346;BME280;2186;49.866;7.986;2023-07-16T12:11:02;100254.63;;;26.53;40.56
4346;BME280;2186;49.866;7.986;2023-07-16T12:13:29;100254.66;;;26.90;40.53
4346;BME280;2186;49.866;7.986;2023-07-16T12:15:55;100262.03;;;26.70;40.94
4346;BME280;2186;49.866;7.986;2023-07-16T12:18:22;100267.03;;;26.84;40.69
4346;BME280;2186;49.866;7.986;2023-07-16T12:20:48;100260.38;;;27.06;41.01
4346;BME280;2186;49.866;7.986;2023-07-16T12:23:15;100248.03;;;26.93;40.86
4346;BME280;2186;49.866;7.986;2023-07-16T12:25:41;100250.91;;;26.54;40.88
4346;BME280;2186;49.866;7.986;2023-07-16T12:28:09;100247.28;;;26.73;42.41
4346;BME280;2186;49.866;7.986;2023-07-16T12:30:36;100244.28;;;26.56;41.71
4346;BME280;2186;49.866;7.986;2023-07-16T12:33:02;100238.94;;;26.74;41.51
4346;BME280;2186;49.866;7.986;2023-07-16T12:35:30;100239.16;;;26.24;42.13
4346;BME280;2186;49.866;7.986;2023-07-16T12:37:57;100239.19;;;26.05;42.64
4346;BME280;2186;49.866;7.986;2023-07-16T12:40:25;100228.00;;;25.98;42.44
4346;BME280;2186;49.866;7.986;2023-07-16T12:42:52;100250.66;;;26.38;42.14
4346;BME280;2186;49.866;7.986;2023-07-16T12:45:18;100233.09;;;26.31;42.73
4346;BME280;2186;49.866;7.986;2023-07-16T12:47:45;100231.94;;;26.62;41.58
4346;BME280;2186;49.866;7.986;2023-07-16T12:50:11;100240.25;;;26.98;42.01
4346;BME280;2186;49.866;7.986;2023-07-16T12:52:38;100240.38;;;27.15;39.78
4346;BME280;2186;49.866;7.986;2023-07-16T12:55:04;100235.97;;;27.05;40.83
4346;BME280;2186;49.866;7.986;2023-07-16T12:57:31;100240.56;;;26.95;40.27
4346;BME280;2186;49.866;7.986;2023-07-16T12:59:58;100240.72;;;26.93;40.04
4346;BME280;2186;49.866;7.986;2023-07-16T13:02:25;100237.28;;;27.01;40.86
4346;BME280;2186;49.866;7.986;2023-07-16T13:04:51;100241.75;;;26.82;40.54
4346;BME280;2186;49.866;7.986;2023-07-16T13:07:18;100248.31;;;26.62;40.53
4346;BME280;2186;49.866;7.986;2023-07-16T13:09:44;100233.75;;;26.71;40.64
4346;BME280;2186;49.866;7.986;2023-07-16T13:12:10;100243.28;;;26.57;40.67
4346;BME280;2186;49.866;7.986;2023-07-16T13:14:37;100237.41;;;26.62;40.40
4346;BME280;2186;49.866;7.986;2023-07-16T13:17:04;100236.78;;;26.68;40.96
4346;BME280;2186;49.866;7.986;2023-07-16T13:19:31;100235.81;;;26.97;40.81
4346;BME280;2186;49.866;7.986;2023-07-16T13:21:58;100234.25;;;27.04;39.98
4346;BME280;2186;49.866;7.986;2023-07-16T13:24:24;100242.91;;;26.90;40.33